Atlanta, Georgia
Current Conditions -  °F | °C
As of 11:52 AM on Thursday 30 Oct 2014 (Local Time) from KATL Reporting Station
Few Clouds Few Clouds  
Wind Chill: 17°   Ceiling: Unl
Heat Index: 17°   Visibility: 10mi
Dew Point:   Wind: 6mph
Humidity: 43%   Direction: 20°NNE
Pressure: 30.09"   Gusts: NA
Location:  33.75°N, 84.39°W
Report Text: KATL 301552Z 02005KT 10SM FEW050 17/04 A3009 RMK AO2 SLP187 T01670039
Loading
Personal Weather Stations






























Interactive Weather Map New forecast layout! Learn more

10-Day Weather Forecast

Advertisements
Track Severe Weather on mobile